Time;durP1;ratioP1;P1;durP2;ratioP2;P2;SDS_P1;SDS_P2;PMS_P1;PMS_P2;Temp;Humidity;BMP_temperature;BMP_pressure;BME280_temperature;BME280_humidity;BME280_pressure;Samples;Min_cycle;Max_cycle;Signal;HPM_P1;HPM_P2
2021/12/10 00:00:13;;;;;;;5.27;4.03;;;;;;;;;;5073950;28;20486;-56
2021/12/10 00:02:45;;;;;;;6.47;3.70;;;;;;;;;;5073929;28;20920;-56
2021/12/10 00:05:11;;;;;;;8.73;4.07;;;;;;;;;;5074103;28;20454;-56
2021/12/10 00:07:37;;;;;;;5.87;3.97;;;;;;;;;;5073984;28;20499;-56
2021/12/10 00:10:05;;;;;;;11.57;4.57;;;;;;;;;;5073973;28;20429;-56
2021/12/10 00:12:35;;;;;;;5.73;4.37;;;;;;;;;;5073896;28;20204;-59
2021/12/10 00:15:02;;;;;;;6.33;3.63;;;;;;;;;;5073947;28;20453;-56
2021/12/10 00:17:28;;;;;;;6.10;4.53;;;;;;;;;;5073924;28;20433;-56
2021/12/10 00:19:57;;;;;;;6.70;4.47;;;;;;;;;;5073494;28;20501;-56
2021/12/10 00:22:25;;;;;;;7.67;4.10;;;;;;;;;;5073704;28;20430;-55
2021/12/10 00:24:53;;;;;;;6.50;4.40;;;;;;;;;;5073482;28;20473;-55
2021/12/10 00:27:27;;;;;;;6.83;4.43;;;;;;;;;;5073764;28;20444;-56
2021/12/10 00:30:02;;;;;;;6.47;4.30;;;;;;;;;;5073240;28;20791;-55
2021/12/10 00:32:36;;;;;;;6.97;4.13;;;;;;;;;;5073702;28;20495;-57
2021/12/10 00:35:04;;;;;;;6.57;4.37;;;;;;;;;;5073884;28;20491;-56
2021/12/10 00:37:31;;;;;;;6.33;4.73;;;;;;;;;;5073363;28;20534;-56
2021/12/10 00:39:58;;;;;;;7.03;4.67;;;;;;;;;;5073566;28;20473;-56
2021/12/10 00:42:26;;;;;;;6.87;4.73;;;;;;;;;;5073157;28;20458;-57
2021/12/10 00:44:52;;;;;;;8.77;4.73;;;;;;;;;;5073228;28;20480;-56
2021/12/10 00:47:20;;;;;;;7.00;4.47;;;;;;;;;;5073355;28;20429;-57
2021/12/10 00:49:46;;;;;;;8.00;4.77;;;;;;;;;;5073038;28;20438;-55
2021/12/10 00:52:12;;;;;;;7.37;4.87;;;;;;;;;;5073330;28;20779;-56
2021/12/10 00:54:39;;;;;;;10.93;4.90;;;;;;;;;;5072939;28;20438;-55
2021/12/10 00:57:08;;;;;;;5.83;4.40;;;;;;;;;;5073037;28;20795;-55
2021/12/10 00:59:35;;;;;;;7.73;4.60;;;;;;;;;;5072997;28;20470;-56
2021/12/10 01:02:01;;;;;;;6.30;4.83;;;;;;;;;;5073089;28;20446;-56
2021/12/10 01:04:31;;;;;;;7.67;4.50;;;;;;;;;;5072955;28;20601;-55
2021/12/10 01:06:58;;;;;;;5.07;4.57;;;;;;;;;;5072900;28;20531;-55
2021/12/10 01:09:26;;;;;;;5.73;4.60;;;;;;;;;;5070798;28;20803;-58
2021/12/10 01:11:54;;;;;;;9.97;4.97;;;;;;;;;;5072380;28;20452;-59
2021/12/10 01:14:35;;;;;;;7.50;5.13;;;;;;;;;;5072552;28;20434;-58
2021/12/10 01:25:50;;;;;;;8.67;5.43;;;;;;;;;;5072801;28;20421;-60
2021/12/10 01:28:16;;;;;;;6.60;5.07;;;;;;;;;;5072610;28;20449;-59
2021/12/10 01:30:42;;;;;;;7.23;4.87;;;;;;;;;;5072405;28;20453;-60
2021/12/10 01:33:10;;;;;;;8.43;5.07;;;;;;;;;;5072297;28;20434;-59
2021/12/10 01:35:38;;;;;;;8.83;5.40;;;;;;;;;;5072095;28;20195;-59
2021/12/10 01:38:06;;;;;;;8.80;5.83;;;;;;;;;;5071967;28;20492;-59
2021/12/10 01:40:32;;;;;;;6.47;5.47;;;;;;;;;;5072157;28;20561;-60
2021/12/10 01:43:06;;;;;;;9.60;6.10;;;;;;;;;;5072136;28;20457;-60
2021/12/10 01:45:34;;;;;;;7.57;5.13;;;;;;;;;;5072179;28;20445;-61
2021/12/10 01:48:01;;;;;;;7.03;5.80;;;;;;;;;;5072087;28;20438;-59
2021/12/10 01:50:28;;;;;;;8.80;5.53;;;;;;;;;;5071710;28;20537;-59
2021/12/10 01:52:56;;;;;;;10.60;6.20;;;;;;;;;;5072042;28;20995;-60
2021/12/10 01:55:23;;;;;;;6.97;5.40;;;;;;;;;;5071651;28;20506;-60
2021/12/10 01:57:51;;;;;;;10.53;6.50;;;;;;;;;;5071703;28;20434;-60
2021/12/10 02:00:17;;;;;;;6.77;5.63;;;;;;;;;;5071672;28;20560;-59
2021/12/10 02:02:45;;;;;;;8.80;6.07;;;;;;;;;;5071480;28;20874;-59
2021/12/10 02:05:12;;;;;;;10.03;5.70;;;;;;;;;;5071622;28;20454;-60
2021/12/10 02:07:38;;;;;;;8.23;5.87;;;;;;;;;;5071303;28;20441;-60
2021/12/10 02:10:08;;;;;;;9.57;6.40;;;;;;;;;;5071476;28;20430;-60
2021/12/10 02:12:34;;;;;;;8.90;6.63;;;;;;;;;;5071797;28;20207;-60
2021/12/10 02:15:03;;;;;;;9.73;5.57;;;;;;;;;;5071631;28;20488;-58
2021/12/10 02:17:30;;;;;;;7.70;6.13;;;;;;;;;;5071909;28;20436;-59
2021/12/10 02:19:56;;;;;;;8.37;6.43;;;;;;;;;;5071274;28;20485;-59
2021/12/10 02:22:24;;;;;;;8.00;6.57;;;;;;;;;;5071486;28;20491;-60
2021/12/10 02:24:50;;;;;;;7.03;6.27;;;;;;;;;;5071315;28;20533;-60
2021/12/10 02:27:16;;;;;;;8.00;6.20;;;;;;;;;;5071404;28;20469;-61
2021/12/10 02:29:42;;;;;;;7.97;6.00;;;;;;;;;;5071499;28;20503;-61
2021/12/10 02:32:10;;;;;;;7.10;6.00;;;;;;;;;;5071507;28;20565;-60
2021/12/10 02:34:36;;;;;;;8.83;6.20;;;;;;;;;;5071371;28;20290;-60
2021/12/10 02:37:03;;;;;;;7.27;5.83;;;;;;;;;;5071256;28;20456;-59
2021/12/10 02:39:30;;;;;;;7.30;5.80;;;;;;;;;;5071444;28;20469;-60
2021/12/10 02:41:56;;;;;;;11.00;6.60;;;;;;;;;;5071348;28;20445;-61
2021/12/10 02:44:24;;;;;;;8.47;6.27;;;;;;;;;;5071208;28;20912;-61
2021/12/10 02:46:51;;;;;;;9.73;6.80;;;;;;;;;;5071125;28;20442;-60
2021/12/10 02:49:17;;;;;;;8.90;6.67;;;;;;;;;;5071365;28;20437;-60
2021/12/10 02:51:43;;;;;;;9.33;6.30;;;;;;;;;;5071045;28;20488;-60
2021/12/10 02:54:11;;;;;;;9.40;6.83;;;;;;;;;;5071150;28;20464;-60
2021/12/10 02:56:39;;;;;;;9.93;6.60;;;;;;;;;;5071130;28;20845;-60
2021/12/10 02:59:05;;;;;;;11.07;6.93;;;;;;;;;;5071073;28;20816;-61
2021/12/10 03:01:36;;;;;;;9.27;7.33;;;;;;;;;;5071267;28;20509;-60
2021/12/10 03:04:03;;;;;;;8.63;6.40;;;;;;;;;;5071368;28;20499;-60
2021/12/10 03:06:29;;;;;;;9.80;6.93;;;;;;;;;;5071074;28;20816;-61
2021/12/10 03:08:56;;;;;;;7.40;6.67;;;;;;;;;;5070853;28;20790;-59
2021/12/10 03:11:23;;;;;;;7.13;6.43;;;;;;;;;;5070879;28;20433;-60
2021/12/10 03:13:51;;;;;;;10.10;6.97;;;;;;;;;;5070934;28;20446;-61
2021/12/10 03:16:18;;;;;;;10.30;7.40;;;;;;;;;;5071072;28;20530;-59
2021/12/10 03:18:44;;;;;;;8.80;6.87;;;;;;;;;;5071130;28;21022;-61
2021/12/10 03:21:10;;;;;;;11.07;7.43;;;;;;;;;;5073275;28;20461;-60
2021/12/10 03:23:42;;;;;;;10.07;6.57;;;;;;;;;;5074644;28;20654;-59
2021/12/10 03:26:10;;;;;;;8.93;7.10;;;;;;;;;;5074784;28;20956;-59
2021/12/10 03:28:36;;;;;;;8.00;6.97;;;;;;;;;;5074681;28;20483;-60
2021/12/10 03:31:03;;;;;;;9.20;7.20;;;;;;;;;;5074579;28;20483;-59
2021/12/10 03:33:30;;;;;;;11.23;6.93;;;;;;;;;;5073419;28;20531;-60
2021/12/10 03:35:56;;;;;;;8.57;7.03;;;;;;;;;;5074563;28;20468;-60
2021/12/10 03:38:23;;;;;;;8.77;7.23;;;;;;;;;;5073028;28;20557;-60
2021/12/10 03:40:49;;;;;;;9.67;7.07;;;;;;;;;;5074588;28;20442;-60
2021/12/10 03:43:16;;;;;;;7.70;6.90;;;;;;;;;;5074695;28;20446;-60
2021/12/10 03:45:44;;;;;;;9.87;7.47;;;;;;;;;;5074321;28;20487;-60
2021/12/10 03:48:13;;;;;;;9.60;7.23;;;;;;;;;;5074431;28;20457;-61
2021/12/10 03:50:40;;;;;;;10.20;8.30;;;;;;;;;;5074302;28;20795;-59
2021/12/10 03:53:07;;;;;;;9.80;7.43;;;;;;;;;;5074270;28;20430;-60
2021/12/10 03:55:33;;;;;;;8.10;7.17;;;;;;;;;;5074281;28;20841;-59
2021/12/10 03:57:59;;;;;;;9.53;7.37;;;;;;;;;;5074236;28;20949;-61
2021/12/10 04:00:27;;;;;;;8.10;7.30;;;;;;;;;;5074092;28;20503;-60
2021/12/10 04:02:53;;;;;;;8.40;7.23;;;;;;;;;;5074462;28;20813;-60
2021/12/10 04:05:21;;;;;;;10.30;7.77;;;;;;;;;;5074357;28;20470;-59
2021/12/10 04:07:48;;;;;;;7.57;6.80;;;;;;;;;;5073969;28;20517;-59
2021/12/10 04:10:15;;;;;;;11.13;8.27;;;;;;;;;;5073941;28;20995;-59
2021/12/10 04:12:41;;;;;;;9.33;8.03;;;;;;;;;;5073814;28;20525;-59
2021/12/10 04:15:08;;;;;;;9.93;7.80;;;;;;;;;;5073593;28;20456;-58
2021/12/10 04:17:34;;;;;;;8.70;7.80;;;;;;;;;;5073948;28;20433;-59
2021/12/10 04:20:00;;;;;;;11.60;8.40;;;;;;;;;;5073730;28;20885;-60
2021/12/10 04:22:32;;;;;;;9.07;7.90;;;;;;;;;;5073737;28;20436;-60
2021/12/10 04:24:58;;;;;;;9.13;8.07;;;;;;;;;;5073691;28;20473;-60
2021/12/10 04:27:24;;;;;;;9.33;7.80;;;;;;;;;;5073726;28;20445;-60
2021/12/10 04:29:55;;;;;;;9.10;7.60;;;;;;;;;;5073638;28;20474;-60
2021/12/10 04:32:21;;;;;;;12.77;7.57;;;;;;;;;;5073411;28;20524;-60
2021/12/10 04:34:47;;;;;;;10.93;7.90;;;;;;;;;;5073469;28;20492;-60
2021/12/10 04:37:13;;;;;;;10.27;7.87;;;;;;;;;;5073410;28;20430;-59
2021/12/10 04:39:45;;;;;;;10.23;7.57;;;;;;;;;;5073337;28;20513;-60
2021/12/10 04:42:12;;;;;;;9.87;7.27;;;;;;;;;;5073528;28;20466;-59
2021/12/10 04:44:38;;;;;;;10.33;8.03;;;;;;;;;;5073350;28;20468;-59
2021/12/10 04:47:04;;;;;;;9.40;8.10;;;;;;;;;;5073530;28;20511;-60
2021/12/10 04:49:30;;;;;;;11.37;8.40;;;;;;;;;;5073487;28;20426;-60
2021/12/10 04:51:57;;;;;;;8.60;7.80;;;;;;;;;;5073198;28;20495;-60
2021/12/10 04:54:25;;;;;;;11.00;8.23;;;;;;;;;;5073282;28;20430;-60
2021/12/10 04:56:54;;;;;;;8.90;7.93;;;;;;;;;;5073246;28;20441;-59
2021/12/10 04:59:22;;;;;;;9.13;7.57;;;;;;;;;;5073055;28;20477;-60
2021/12/10 05:01:48;;;;;;;10.80;8.17;;;;;;;;;;5073143;28;20449;-60
2021/12/10 05:04:15;;;;;;;9.23;7.63;;;;;;;;;;5073070;28;20920;-61
2021/12/10 05:06:41;;;;;;;11.00;7.83;;;;;;;;;;5072732;28;20861;-59
2021/12/10 05:09:12;;;;;;;10.20;8.07;;;;;;;;;;5072716;28;20956;-59
2021/12/10 05:11:38;;;;;;;11.17;8.03;;;;;;;;;;5072768;28;20426;-59
2021/12/10 05:14:06;;;;;;;9.57;7.77;;;;;;;;;;5072335;28;20457;-59
2021/12/10 05:16:32;;;;;;;10.23;7.53;;;;;;;;;;5072743;28;20445;-61
2021/12/10 05:19:00;;;;;;;9.97;7.70;;;;;;;;;;5072524;28;21050;-59
2021/12/10 05:21:27;;;;;;;9.40;7.80;;;;;;;;;;5072755;28;20438;-61
2021/12/10 05:23:54;;;;;;;9.17;7.80;;;;;;;;;;5072372;28;20445;-60
2021/12/10 05:26:20;;;;;;;11.67;7.60;;;;;;;;;;5072677;28;20453;-59
2021/12/10 05:28:46;;;;;;;10.37;8.10;;;;;;;;;;5072258;28;21028;-60
2021/12/10 05:31:14;;;;;;;9.20;7.47;;;;;;;;;;5072575;28;20533;-60
2021/12/10 05:33:40;;;;;;;9.97;7.97;;;;;;;;;;5072439;28;20822;-60
2021/12/10 05:36:07;;;;;;;9.83;7.50;;;;;;;;;;5072612;28;20496;-60
2021/12/10 05:38:33;;;;;;;8.80;7.23;;;;;;;;;;5072262;28;20469;-59
2021/12/10 05:41:02;;;;;;;8.63;7.70;;;;;;;;;;5072223;28;20445;-61
2021/12/10 05:43:28;;;;;;;10.57;8.23;;;;;;;;;;5071439;28;20442;-60
2021/12/10 05:45:54;;;;;;;10.90;7.70;;;;;;;;;;5072123;28;20866;-60
2021/12/10 05:48:23;;;;;;;13.03;7.43;;;;;;;;;;5072437;28;20430;-59
2021/12/10 05:50:49;;;;;;;9.33;8.23;;;;;;;;;;5071982;28;20438;-60
2021/12/10 05:53:15;;;;;;;9.23;6.93;;;;;;;;;;5071966;28;20434;-59
2021/12/10 05:55:42;;;;;;;9.67;7.67;;;;;;;;;;5071900;28;20985;-60
2021/12/10 05:58:08;;;;;;;9.80;7.60;;;;;;;;;;5072121;28;20445;-61
2021/12/10 06:00:36;;;;;;;10.80;8.07;;;;;;;;;;5071705;28;20836;-61
2021/12/10 06:03:03;;;;;;;9.13;7.60;;;;;;;;;;5071846;28;20445;-59
2021/12/10 06:05:32;;;;;;;10.30;7.87;;;;;;;;;;5071754;28;20458;-59
2021/12/10 06:07:58;;;;;;;10.13;7.43;;;;;;;;;;5071646;28;20469;-60
2021/12/10 06:10:25;;;;;;;10.17;7.67;;;;;;;;;;5071730;28;20438;-60
2021/12/10 06:12:52;;;;;;;9.03;7.20;;;;;;;;;;5071624;28;20434;-59
2021/12/10 06:15:19;;;;;;;8.07;7.00;;;;;;;;;;5071895;28;20535;-60
2021/12/10 06:17:58;;;;;;;8.67;7.63;;;;;;;;;;5071541;28;20442;-60
2021/12/10 06:20:26;;;;;;;8.40;7.47;;;;;;;;;;5071038;28;21013;-61
2021/12/10 06:22:53;;;;;;;8.80;7.70;;;;;;;;;;5071257;28;20541;-58
2021/12/10 06:25:19;;;;;;;10.40;8.93;;;;;;;;;;5071648;28;20441;-59
2021/12/10 06:27:45;;;;;;;11.57;8.30;;;;;;;;;;5071458;28;20475;-59
2021/12/10 06:30:13;;;;;;;12.00;8.23;;;;;;;;;;5071425;28;20241;-59
2021/12/10 06:32:39;;;;;;;10.70;8.30;;;;;;;;;;5071298;28;20433;-60
2021/12/10 06:35:05;;;;;;;11.40;8.33;;;;;;;;;;5071122;28;20479;-60
2021/12/10 06:37:31;;;;;;;11.47;8.57;;;;;;;;;;5071304;28;20292;-60
2021/12/10 06:39:59;;;;;;;11.60;8.60;;;;;;;;;;5070891;28;20509;-60
2021/12/10 06:42:25;;;;;;;10.30;8.50;;;;;;;;;;5071454;28;20916;-60
2021/12/10 06:44:51;;;;;;;12.00;8.93;;;;;;;;;;5070990;28;20441;-59
2021/12/10 06:47:17;;;;;;;11.50;8.30;;;;;;;;;;5071410;28;20274;-59
2021/12/10 06:49:43;;;;;;;10.63;8.67;;;;;;;;;;5071242;28;20473;-60
2021/12/10 06:52:09;;;;;;;12.40;9.03;;;;;;;;;;5071192;28;20434;-59
2021/12/10 06:54:35;;;;;;;10.17;8.67;;;;;;;;;;5072325;28;20449;-60
2021/12/10 06:57:02;;;;;;;11.17;8.30;;;;;;;;;;5075281;28;20437;-59
2021/12/10 06:59:29;;;;;;;11.90;9.47;;;;;;;;;;5075301;28;20501;-59
2021/12/10 07:01:55;;;;;;;12.73;8.20;;;;;;;;;;5075092;28;20436;-60
2021/12/10 07:04:21;;;;;;;13.63;9.33;;;;;;;;;;5075066;28;20438;-59
2021/12/10 07:06:47;;;;;;;13.00;9.20;;;;;;;;;;5074885;28;20434;-60
2021/12/10 07:09:14;;;;;;;14.67;8.73;;;;;;;;;;5075000;28;20437;-60
2021/12/10 07:11:41;;;;;;;11.27;9.27;;;;;;;;;;5074917;28;20527;-60
2021/12/10 07:14:08;;;;;;;13.10;9.23;;;;;;;;;;5074093;28;20514;-60
2021/12/10 07:16:34;;;;;;;12.30;9.17;;;;;;;;;;5074717;28;20446;-60
2021/12/10 07:19:01;;;;;;;13.10;9.83;;;;;;;;;;5074713;28;20485;-60
2021/12/10 07:21:29;;;;;;;12.93;9.60;;;;;;;;;;5074513;28;20432;-60
2021/12/10 07:23:55;;;;;;;13.17;9.20;;;;;;;;;;5074675;28;20491;-61
2021/12/10 07:26:21;;;;;;;15.80;10.23;;;;;;;;;;5074796;28;20421;-60
2021/12/10 07:28:47;;;;;;;16.57;9.80;;;;;;;;;;5074630;28;20780;-59
2021/12/10 07:31:15;;;;;;;11.87;9.60;;;;;;;;;;5074545;28;20429;-59
2021/12/10 07:33:41;;;;;;;13.00;9.77;;;;;;;;;;5074247;28;20883;-59
2021/12/10 07:36:08;;;;;;;13.37;9.27;;;;;;;;;;5074406;28;20437;-59
2021/12/10 07:38:34;;;;;;;11.10;9.67;;;;;;;;;;5074107;28;20473;-59
2021/12/10 07:41:00;;;;;;;12.57;9.40;;;;;;;;;;5074260;28;20510;-59
2021/12/10 07:43:26;;;;;;;12.73;10.07;;;;;;;;;;5074376;28;20437;-59
2021/12/10 07:45:52;;;;;;;11.00;9.33;;;;;;;;;;5074420;28;20854;-59
2021/12/10 07:48:21;;;;;;;11.97;9.30;;;;;;;;;;5074240;28;20253;-59
2021/12/10 07:50:52;;;;;;;11.77;9.60;;;;;;;;;;5074185;28;20966;-59
2021/12/10 07:53:19;;;;;;;13.10;10.40;;;;;;;;;;5074141;28;20994;-60
2021/12/10 07:55:46;;;;;;;14.87;10.43;;;;;;;;;;5073977;28;20434;-60
2021/12/10 07:58:12;;;;;;;16.63;10.33;;;;;;;;;;5073757;28;20814;-58
2021/12/10 08:00:40;;;;;;;12.63;10.00;;;;;;;;;;5073869;28;20485;-57
2021/12/10 08:03:06;;;;;;;12.97;9.73;;;;;;;;;;5074225;28;20195;-58
2021/12/10 08:05:33;;;;;;;11.27;8.97;;;;;;;;;;5073018;28;20469;-57
2021/12/10 08:08:00;;;;;;;13.80;9.00;;;;;;;;;;5073689;28;20517;-57
2021/12/10 08:10:27;;;;;;;11.17;9.10;;;;;;;;;;5073803;28;20430;-57
2021/12/10 08:12:53;;;;;;;10.57;8.40;;;;;;;;;;5073766;28;20464;-58
2021/12/10 08:15:19;;;;;;;15.00;8.37;;;;;;;;;;5073931;28;20433;-59
2021/12/10 08:17:46;;;;;;;9.67;7.17;;;;;;;;;;5073554;28;20483;-58
2021/12/10 08:20:14;;;;;;;10.93;7.80;;;;;;;;;;5073685;28;20565;-58
2021/12/10 08:22:42;;;;;;;10.10;7.80;;;;;;;;;;5073804;28;20433;-59
2021/12/10 08:25:08;;;;;;;11.20;7.50;;;;;;;;;;5073910;28;20638;-59
2021/12/10 08:27:37;;;;;;;8.57;7.37;;;;;;;;;;5073717;28;20422;-58
2021/12/10 08:30:04;;;;;;;9.73;7.77;;;;;;;;;;5073682;28;20532;-59
2021/12/10 08:32:31;;;;;;;8.23;7.00;;;;;;;;;;5073632;28;20904;-59
2021/12/10 08:34:57;;;;;;;13.07;7.77;;;;;;;;;;5073457;28;20507;-58
2021/12/10 08:37:23;;;;;;;9.30;7.80;;;;;;;;;;5073212;28;20581;-58
2021/12/10 08:39:51;;;;;;;8.10;7.30;;;;;;;;;;5073324;28;20489;-57
2021/12/10 08:42:17;;;;;;;9.53;7.10;;;;;;;;;;5073490;28;20525;-58
2021/12/10 08:44:43;;;;;;;10.37;7.80;;;;;;;;;;5073340;28;20505;-58
2021/12/10 08:47:10;;;;;;;9.60;7.83;;;;;;;;;;5073207;28;20441;-58
2021/12/10 08:49:36;;;;;;;9.13;7.30;;;;;;;;;;5073145;28;20787;-60
2021/12/10 08:52:04;;;;;;;9.40;6.83;;;;;;;;;;5073059;28;20433;-59
2021/12/10 08:54:30;;;;;;;8.87;6.27;;;;;;;;;;5073139;28;20196;-58
2021/12/10 08:56:58;;;;;;;7.47;5.63;;;;;;;;;;5073042;28;20223;-59
2021/12/10 08:59:24;;;;;;;12.37;6.90;;;;;;;;;;5072950;28;20219;-57
2021/12/10 09:01:52;;;;;;;10.57;6.97;;;;;;;;;;5072767;28;20731;-59
2021/12/10 09:04:18;;;;;;;11.27;8.77;;;;;;;;;;5073115;28;20204;-59
2021/12/10 09:06:48;;;;;;;7.57;6.77;;;;;;;;;;5072880;28;20265;-58
2021/12/10 09:09:15;;;;;;;8.37;6.47;;;;;;;;;;5072980;28;20231;-58
2021/12/10 09:11:44;;;;;;;9.13;6.40;;;;;;;;;;5072894;28;20257;-64
2021/12/10 09:14:11;;;;;;;7.90;5.80;;;;;;;;;;5072717;28;20274;-62
2021/12/10 09:16:38;;;;;;;6.37;5.57;;;;;;;;;;5072695;28;20195;-61
2021/12/10 09:19:06;;;;;;;7.77;5.93;;;;;;;;;;5063717;28;20200;-58
2021/12/10 09:21:33;;;;;;;6.63;5.27;;;;;;;;;;5072650;28;20274;-58
2021/12/10 09:24:04;;;;;;;5.90;5.30;;;;;;;;;;5072372;28;20585;-59
2021/12/10 09:26:31;;;;;;;6.67;5.50;;;;;;;;;;5070705;28;20534;-60
2021/12/10 09:28:57;;;;;;;7.37;5.87;;;;;;;;;;5072097;28;20674;-61
2021/12/10 09:31:25;;;;;;;7.00;5.50;;;;;;;;;;5072138;28;20222;-60
2021/12/10 09:33:52;;;;;;;7.23;5.97;;;;;;;;;;5072398;28;20203;-60
2021/12/10 09:36:18;;;;;;;6.47;5.80;;;;;;;;;;5072273;28;20191;-60
2021/12/10 09:38:44;;;;;;;7.60;6.37;;;;;;;;;;5072119;28;20285;-60
2021/12/10 09:41:11;;;;;;;7.13;6.43;;;;;;;;;;5072005;28;20259;-58
2021/12/10 09:43:37;;;;;;;6.70;6.00;;;;;;;;;;5071932;28;20195;-58
2021/12/10 09:46:04;;;;;;;7.00;6.30;;;;;;;;;;5071746;28;20253;-59
2021/12/10 09:48:32;;;;;;;8.20;7.40;;;;;;;;;;5072027;28;20191;-59
2021/12/10 09:51:00;;;;;;;8.83;7.73;;;;;;;;;;5072036;28;20252;-59
2021/12/10 09:53:27;;;;;;;9.20;7.30;;;;;;;;;;5072329;28;20361;-60
2021/12/10 09:55:53;;;;;;;10.10;7.40;;;;;;;;;;5072065;28;20237;-59
2021/12/10 09:58:20;;;;;;;9.40;7.77;;;;;;;;;;5072163;28;20195;-59
2021/12/10 10:00:47;;;;;;;7.80;7.00;;;;;;;;;;5071838;28;20310;-60
2021/12/10 10:03:15;;;;;;;8.67;6.47;;;;;;;;;;5071980;28;20195;-60
2021/12/10 10:05:45;;;;;;;9.93;7.60;;;;;;;;;;5072002;28;20298;-59
2021/12/10 10:08:14;;;;;;;11.20;8.07;;;;;;;;;;5071818;28;20195;-59
2021/12/10 10:10:41;;;;;;;9.77;8.23;;;;;;;;;;5069572;28;20741;-60
2021/12/10 10:13:07;;;;;;;10.03;8.17;;;;;;;;;;5071444;28;20207;-58
2021/12/10 10:15:34;;;;;;;11.00;8.33;;;;;;;;;;5071739;28;20650;-60
2021/12/10 10:18:02;;;;;;;13.27;7.33;;;;;;;;;;5071515;28;20949;-59
2021/12/10 10:20:29;;;;;;;9.40;7.67;;;;;;;;;;5071589;28;20223;-59
2021/12/10 10:22:57;;;;;;;9.87;7.73;;;;;;;;;;5071323;28;20444;-60
2021/12/10 10:25:25;;;;;;;11.77;8.60;;;;;;;;;;5071475;28;20481;-60
2021/12/10 10:27:51;;;;;;;9.37;7.80;;;;;;;;;;5071243;28;20920;-59
2021/12/10 10:30:22;;;;;;;8.40;6.80;;;;;;;;;;5071150;28;20473;-60
2021/12/10 10:32:49;;;;;;;10.37;6.60;;;;;;;;;;5071276;28;20480;-60
2021/12/10 10:35:17;;;;;;;7.90;6.90;;;;;;;;;;5071512;28;20924;-60
2021/12/10 10:37:44;;;;;;;9.40;6.63;;;;;;;;;;5071186;28;20568;-61
2021/12/10 10:40:14;;;;;;;8.20;6.73;;;;;;;;;;5071707;28;20489;-60
2021/12/10 10:42:41;;;;;;;9.23;6.90;;;;;;;;;;5071318;28;20466;-60
2021/12/10 10:45:09;;;;;;;8.90;6.47;;;;;;;;;;5071203;28;20587;-59
2021/12/10 10:47:36;;;;;;;8.60;6.97;;;;;;;;;;5071173;28;20509;-61
2021/12/10 10:50:11;;;;;;;7.73;6.63;;;;;;;;;;5071301;28;20449;-61
2021/12/10 10:52:38;;;;;;;8.50;7.07;;;;;;;;;;5071319;28;20195;-61
2021/12/10 10:55:16;;;;;;;8.10;6.80;;;;;;;;;;5071079;28;20491;-59
2021/12/10 10:57:49;;;;;;;9.20;6.33;;;;;;;;;;5071102;28;20821;-59
2021/12/10 11:00:17;;;;;;;9.83;6.77;;;;;;;;;;5071068;28;20720;-60
2021/12/10 11:02:50;;;;;;;7.40;6.10;;;;;;;;;;5071036;28;20196;-60
2021/12/10 11:05:16;;;;;;;9.53;6.57;;;;;;;;;;5071195;28;20701;-60
2021/12/10 11:07:44;;;;;;;9.57;6.90;;;;;;;;;;5071330;28;20658;-61
2021/12/10 11:10:10;;;;;;;7.23;6.53;;;;;;;;;;5071069;28;20582;-60
2021/12/10 11:12:39;;;;;;;7.97;6.07;;;;;;;;;;5071340;28;20617;-60
2021/12/10 11:15:07;;;;;;;7.17;6.00;;;;;;;;;;5071078;28;20571;-61
2021/12/10 11:17:36;;;;;;;8.50;6.10;;;;;;;;;;5071236;28;20203;-62
2021/12/10 11:20:05;;;;;;;7.13;5.87;;;;;;;;;;5071364;28;20240;-60
2021/12/10 11:22:31;;;;;;;9.40;6.30;;;;;;;;;;5071446;28;20598;-60
2021/12/10 11:25:00;;;;;;;6.77;5.93;;;;;;;;;;5071153;28;20542;-60
2021/12/10 11:27:28;;;;;;;9.10;5.83;;;;;;;;;;5071252;28;20230;-60
2021/12/10 11:29:56;;;;;;;7.93;5.20;;;;;;;;;;5071257;28;20188;-61
2021/12/10 11:32:32;;;;;;;6.70;5.23;;;;;;;;;;5071464;28;20196;-62
2021/12/10 11:35:03;;;;;;;8.43;5.97;;;;;;;;;;5071339;28;20340;-61
2021/12/10 11:37:44;;;;;;;7.17;5.00;;;;;;;;;;5071286;28;20271;-61
2021/12/10 11:40:27;;;;;;;8.10;5.40;;;;;;;;;;5071004;28;20223;-60
2021/12/10 11:42:59;;;;;;;6.77;4.97;;;;;;;;;;5074371;28;20635;-61
2021/12/10 11:45:33;;;;;;;5.97;5.33;;;;;;;;;;5074870;28;20199;-61
2021/12/10 11:48:12;;;;;;;6.93;5.57;;;;;;;;;;5072818;28;20200;-60
2021/12/10 11:50:40;;;;;;;5.33;4.83;;;;;;;;;;5074545;28;20200;-61
2021/12/10 11:53:07;;;;;;;7.77;6.17;;;;;;;;;;5074300;28;20199;-60
2021/12/10 11:55:35;;;;;;;10.23;5.43;;;;;;;;;;5074324;28;20581;-61
2021/12/10 11:58:02;;;;;;;7.03;4.90;;;;;;;;;;5074207;28;20627;-61
2021/12/10 12:00:31;;;;;;;6.00;4.80;;;;;;;;;;5074103;28;20728;-60
2021/12/10 12:02:58;;;;;;;6.50;5.50;;;;;;;;;;5074010;28;20203;-61
2021/12/10 12:05:26;;;;;;;5.70;5.00;;;;;;;;;;5073971;28;20288;-61
2021/12/10 12:07:53;;;;;;;5.90;5.03;;;;;;;;;;5073816;28;20652;-62
2021/12/10 12:10:22;;;;;;;6.50;4.03;;;;;;;;;;5073969;28;20269;-62
2021/12/10 12:12:50;;;;;;;3.90;3.43;;;;;;;;;;5073751;28;20225;-61
2021/12/10 12:15:30;;;;;;;3.53;2.60;;;;;;;;;;5074241;28;20239;-61
2021/12/10 12:17:59;;;;;;;3.60;2.60;;;;;;;;;;5068113;28;20601;-65
2021/12/10 12:20:28;;;;;;;3.47;2.80;;;;;;;;;;5071123;28;20215;-65
2021/12/10 12:25:43;;;;;;;5.13;3.20;;;;;;;;;;5073865;28;20285;-66
2021/12/10 12:28:10;;;;;;;4.20;3.20;;;;;;;;;;5073689;28;20652;-67
2021/12/10 12:30:49;;;;;;;3.50;2.70;;;;;;;;;;5073885;28;20199;-65
2021/12/10 12:33:16;;;;;;;3.67;3.00;;;;;;;;;;5072201;28;20199;-65
2021/12/10 12:35:42;;;;;;;3.57;2.97;;;;;;;;;;5073781;28;20200;-63
2021/12/10 12:38:10;;;;;;;3.10;2.60;;;;;;;;;;5073736;28;20474;-62
2021/12/10 12:40:37;;;;;;;6.00;2.70;;;;;;;;;;5073540;28;20566;-62
2021/12/10 12:43:06;;;;;;;4.17;3.00;;;;;;;;;;5073222;28;20452;-61
2021/12/10 12:45:33;;;;;;;3.90;3.33;;;;;;;;;;5073604;28;20442;-61
2021/12/10 12:47:59;;;;;;;6.00;2.87;;;;;;;;;;5073561;28;20434;-63
2021/12/10 12:50:27;;;;;;;3.63;3.33;;;;;;;;;;5073612;28;20908;-60
2021/12/10 12:52:54;;;;;;;3.90;3.30;;;;;;;;;;5073219;28;20454;-61
2021/12/10 12:55:31;;;;;;;5.70;3.13;;;;;;;;;;5073560;28;20484;-61
2021/12/10 12:57:59;;;;;;;3.57;2.97;;;;;;;;;;5073181;28;20479;-61
2021/12/10 13:00:27;;;;;;;4.17;2.83;;;;;;;;;;5073000;28;20477;-60
2021/12/10 13:02:56;;;;;;;4.63;3.00;;;;;;;;;;5071190;28;20448;-60
2021/12/10 13:05:31;;;;;;;5.00;2.77;;;;;;;;;;5072931;28;20473;-61
2021/12/10 13:08:04;;;;;;;4.63;2.77;;;;;;;;;;5073022;28;20441;-61
2021/12/10 13:10:32;;;;;;;3.20;2.60;;;;;;;;;;5073197;28;20479;-61
2021/12/10 13:13:10;;;;;;;4.17;3.13;;;;;;;;;;5073069;28;20434;-60
2021/12/10 13:15:38;;;;;;;6.40;3.03;;;;;;;;;;5072869;28;20430;-61
2021/12/10 13:18:06;;;;;;;4.70;3.17;;;;;;;;;;5072739;28;20475;-61
2021/12/10 13:20:35;;;;;;;4.20;3.00;;;;;;;;;;5072762;28;20880;-60
2021/12/10 13:23:02;;;;;;;3.77;2.50;;;;;;;;;;5072727;28;20464;-60
2021/12/10 13:25:29;;;;;;;4.03;2.50;;;;;;;;;;5072892;28;20206;-60
2021/12/10 13:27:57;;;;;;;3.93;2.97;;;;;;;;;;5072538;28;20430;-60
2021/12/10 13:30:24;;;;;;;3.30;2.60;;;;;;;;;;5072445;28;21010;-61
2021/12/10 13:32:51;;;;;;;3.07;2.63;;;;;;;;;;5072336;28;20517;-60
2021/12/10 13:35:18;;;;;;;3.63;2.57;;;;;;;;;;5072641;28;20496;-60
2021/12/10 13:37:45;;;;;;;8.10;6.80;;;;;;;;;;5072087;28;20481;-61
2021/12/10 13:40:14;;;;;;;7.20;2.77;;;;;;;;;;5072375;28;20504;-61
2021/12/10 13:42:40;;;;;;;4.07;2.70;;;;;;;;;;5072501;28;20426;-61
2021/12/10 13:45:07;;;;;;;4.43;2.57;;;;;;;;;;5072245;28;20453;-62
2021/12/10 13:47:35;;;;;;;4.67;2.30;;;;;;;;;;5072629;28;20210;-63
2021/12/10 13:50:04;;;;;;;4.23;2.90;;;;;;;;;;5072501;28;20437;-61
2021/12/10 13:52:35;;;;;;;4.87;3.13;;;;;;;;;;5072676;28;20441;-61
2021/12/10 13:55:04;;;;;;;5.67;2.90;;;;;;;;;;5072490;28;20461;-61
2021/12/10 13:57:30;;;;;;;5.27;3.37;;;;;;;;;;5072433;28;20442;-61
2021/12/10 13:59:57;;;;;;;4.07;2.93;;;;;;;;;;5072195;28;20219;-60
2021/12/10 14:02:31;;;;;;;5.03;3.63;;;;;;;;;;5072265;28;20450;-59
2021/12/10 14:04:59;;;;;;;4.73;3.67;;;;;;;;;;5071429;28;20468;-60
2021/12/10 14:07:25;;;;;;;4.40;3.27;;;;;;;;;;5072163;28;20452;-60
2021/12/10 14:09:53;;;;;;;3.70;3.27;;;;;;;;;;5072180;28;20438;-60
2021/12/10 14:12:31;;;;;;;3.47;3.17;;;;;;;;;;5071948;28;20476;-60
2021/12/10 14:14:59;;;;;;;3.13;2.73;;;;;;;;;;5072166;28;20249;-59
2021/12/10 14:17:27;;;;;;;5.43;3.70;;;;;;;;;;5072057;28;20981;-61
2021/12/10 14:19:55;;;;;;;14.57;8.77;;;;;;;;;;5072014;28;20233;-62
2021/12/10 14:22:36;;;;;;;13.70;8.73;;;;;;;;;;5072120;28;20207;-61
2021/12/10 14:25:03;;;;;;;9.53;6.87;;;;;;;;;;5071825;28;20221;-60
2021/12/10 14:27:31;;;;;;;9.07;6.77;;;;;;;;;;5071900;28;20485;-61
2021/12/10 14:30:09;;;;;;;11.60;8.40;;;;;;;;;;5070328;28;20719;-61
2021/12/10 14:32:35;;;;;;;9.27;6.57;;;;;;;;;;5072091;28;20445;-61
2021/12/10 14:35:05;;;;;;;7.47;6.00;;;;;;;;;;5071964;28;20934;-61
2021/12/10 14:37:45;;;;;;;9.30;6.67;;;;;;;;;;5071917;28;20465;-60
2021/12/10 14:40:12;;;;;;;8.13;5.87;;;;;;;;;;5071768;28;20556;-60
2021/12/10 14:42:39;;;;;;;7.87;6.10;;;;;;;;;;5064477;28;20450;-59
2021/12/10 14:45:07;;;;;;;7.83;6.30;;;;;;;;;;5071509;28;20491;-58
2021/12/10 14:47:33;;;;;;;8.50;6.20;;;;;;;;;;5070562;28;20491;-58
2021/12/10 14:50:02;;;;;;;7.13;6.07;;;;;;;;;;5071622;28;20429;-60
2021/12/10 14:52:31;;;;;;;9.73;5.97;;;;;;;;;;5071802;28;20672;-59